createdAt,value
2022-09-20T00:01:20.509Z,10.5
2022-09-20T00:15:51.012Z,10.8
2022-09-20T00:30:21.452Z,10.3
2022-09-20T00:44:50.661Z,9.7
2022-09-20T00:59:20.379Z,9.4
2022-09-20T01:14:03.564Z,9.6
2022-09-20T01:28:25.480Z,9.6
2022-09-20T01:42:55.210Z,9
2022-09-20T01:57:27.964Z,9.2
2022-09-20T02:11:54.301Z,9
2022-09-20T02:26:25.090Z,8.6
2022-09-20T02:40:53.548Z,8.3
2022-09-20T02:55:24.667Z,8.6
2022-09-20T03:10:01.791Z,8.8
2022-09-20T03:24:34.129Z,9.2
2022-09-20T03:39:01.471Z,9.3
2022-09-20T03:53:30.365Z,8.8
2022-09-20T04:08:01.152Z,8.7
2022-09-20T04:22:32.373Z,8.6
2022-09-20T04:37:04.192Z,9.2
2022-09-20T04:51:35.529Z,9.5
2022-09-20T05:06:06.016Z,9.4
2022-09-20T05:20:36.585Z,9.5
2022-09-20T05:35:06.988Z,9.5
2022-09-20T05:49:37.766Z,9.6
2022-09-20T06:04:05.872Z,9.9
2022-09-20T06:18:38.125Z,10.1
2022-09-20T06:33:09.394Z,10.2
2022-09-20T06:47:40.012Z,10.3
2022-09-20T07:02:11.355Z,10.2
2022-09-20T07:16:43.705Z,10.9
2022-09-20T07:31:16.073Z,11.5
2022-09-20T07:45:46.680Z,11.9
2022-09-20T08:00:19.043Z,12.5
2022-09-20T08:14:52.784Z,13.2
2022-09-20T08:29:29.246Z,12
2022-09-20T08:43:56.054Z,11.5
2022-09-20T08:58:35.579Z,10.8
2022-09-20T09:13:02.611Z,11.1
2022-09-20T09:27:30.907Z,10
2022-09-20T09:42:06.153Z,9.7
2022-09-20T09:56:37.885Z,9.8
2022-09-20T10:11:05.785Z,9.4
2022-09-20T10:25:38.138Z,8.8
2022-09-20T10:40:05.145Z,10.5
2022-09-20T10:54:34.256Z,10.5
2022-09-20T11:09:03.783Z,10.2
2022-09-20T11:23:36.169Z,10.6
2022-09-20T11:38:07.801Z,10.2
2022-09-20T11:52:37.914Z,9.7
2022-09-20T12:07:18.786Z,8.7
2022-09-20T12:21:50.124Z,9.3
2022-09-20T12:36:20.035Z,8.8
2022-09-20T12:50:46.700Z,8
2022-09-20T13:05:17.187Z,8.7
2022-09-20T13:19:48.116Z,9.5
2022-09-20T13:34:24.702Z,9.1
2022-09-20T13:48:51.459Z,9.1
2022-09-20T14:03:21.573Z,8.8
2022-09-20T14:17:52.416Z,9.4
2022-09-20T14:32:23.357Z,9.8
2022-09-20T14:46:53.478Z,9.6
2022-09-20T15:01:24.450Z,9.4
2022-09-20T15:15:53.034Z,9
2022-09-20T15:30:23.931Z,8.7
2022-09-20T15:44:54.338Z,8.5
2022-09-20T16:14:00.108Z,8.7
2022-09-20T16:28:31.766Z,8.8
2022-09-20T16:43:03.078Z,9.1
2022-09-20T16:57:32.438Z,9.6
2022-09-20T17:12:02.171Z,9.4
2022-09-20T17:26:31.932Z,9.7
2022-09-20T17:41:02.318Z,9.6
2022-09-20T17:55:31.624Z,9.6
2022-09-20T18:10:03.129Z,9.8
2022-09-20T18:24:31.818Z,9.7
2022-09-20T18:39:00.835Z,9.9
2022-09-20T18:53:32.220Z,10.1
2022-09-20T19:08:01.565Z,10
2022-09-20T19:22:31.996Z,9.7
2022-09-20T19:37:02.783Z,10.4
2022-09-20T19:51:33.959Z,10.3
2022-09-20T20:06:08.872Z,10.1
2022-09-20T20:20:35.872Z,10.6
2022-09-20T20:35:06.160Z,10.4
2022-09-20T20:49:37.249Z,10.6
2022-09-20T21:04:07.841Z,10.5
2022-09-20T21:18:36.823Z,10.3
2022-09-20T21:33:06.800Z,10.7
2022-09-20T21:47:38.758Z,10.4
2022-09-20T22:02:12.865Z,10.6
2022-09-20T22:16:40.048Z,10.7
2022-09-20T22:31:15.245Z,10.2
2022-09-20T22:45:47.973Z,10.4
2022-09-20T23:00:12.744Z,10.3
2022-09-20T23:14:43.015Z,10
2022-09-20T23:29:14.269Z,10.1
2022-09-20T23:43:45.531Z,9.9
2022-09-20T23:58:14.559Z,9.8
